sensor_id;sensor_type;location;lat;lon;timestamp;pressure;altitude;pressure_sealevel;temperature;humidity
967;BME280;56108;48.730;9.304;2024-01-27T00:01:11;99228.31;;;2.12;100.00
967;BME280;56108;48.730;9.304;2024-01-27T00:03:19;99231.84;;;2.07;100.00
967;BME280;56108;48.730;9.304;2024-01-27T00:05:28;99232.75;;;2.03;100.00
967;BME280;56108;48.730;9.304;2024-01-27T00:07:40;99238.88;;;2.05;100.00
967;BME280;56108;48.730;9.304;2024-01-27T00:09:48;99241.56;;;1.99;100.00
967;BME280;56108;48.730;9.304;2024-01-27T00:11:57;99245.03;;;2.04;100.00
967;BME280;56108;48.730;9.304;2024-01-27T00:14:05;99239.72;;;2.11;100.00
967;BME280;56108;48.730;9.304;2024-01-27T00:16:13;99250.31;;;2.01;100.00
967;BME280;56108;48.730;9.304;2024-01-27T00:18:22;99244.25;;;1.93;100.00
967;BME280;56108;48.730;9.304;2024-01-27T00:20:30;99239.91;;;1.88;100.00
967;BME280;56108;48.730;9.304;2024-01-27T00:22:41;99252.19;;;1.82;100.00
967;BME280;56108;48.730;9.304;2024-01-27T00:24:49;99246.09;;;1.83;100.00
967;BME280;56108;48.730;9.304;2024-01-27T00:26:58;99248.72;;;1.80;100.00
967;BME280;56108;48.730;9.304;2024-01-27T00:29:06;99251.41;;;1.73;100.00
967;BME280;56108;48.730;9.304;2024-01-27T00:31:14;99247.94;;;1.69;100.00
967;BME280;56108;48.730;9.304;2024-01-27T00:33:23;99241.00;;;1.61;100.00
967;BME280;56108;48.730;9.304;2024-01-27T00:35:31;99248.88;;;1.59;100.00
967;BME280;56108;48.730;9.304;2024-01-27T00:37:43;99249.69;;;1.66;100.00
967;BME280;56108;48.730;9.304;2024-01-27T00:39:52;99253.22;;;1.65;100.00
967;BME280;56108;48.730;9.304;2024-01-27T00:42:00;99258.50;;;1.59;100.00
967;BME280;56108;48.730;9.304;2024-01-27T00:44:08;99253.22;;;1.68;100.00
967;BME280;56108;48.730;9.304;2024-01-27T00:46:14;99255.81;;;1.72;100.00
967;BME280;56108;48.730;9.304;2024-01-27T00:48:22;99260.16;;;1.75;100.00
967;BME280;56108;48.730;9.304;2024-01-27T00:50:31;99260.97;;;1.80;100.00
967;BME280;56108;48.730;9.304;2024-01-27T00:52:44;99258.38;;;1.75;100.00
967;BME280;56108;48.730;9.304;2024-01-27T00:54:52;99257.47;;;1.79;100.00
967;BME280;56108;48.730;9.304;2024-01-27T00:57:01;99265.28;;;1.90;100.00
967;BME280;56108;48.730;9.304;2024-01-27T00:59:07;99274.09;;;1.81;100.00
967;BME280;56108;48.730;9.304;2024-01-27T01:01:15;99273.28;;;1.73;100.00
967;BME280;56108;48.730;9.304;2024-01-27T01:03:23;99271.53;;;1.74;100.00
967;BME280;56108;48.730;9.304;2024-01-27T01:05:32;99273.25;;;1.76;100.00
967;BME280;56108;48.730;9.304;2024-01-27T01:07:38;99275.06;;;1.70;100.00
967;BME280;56108;48.730;9.304;2024-01-27T01:09:49;99280.34;;;1.61;100.00
967;BME280;56108;48.730;9.304;2024-01-27T01:11:57;99270.78;;;1.53;100.00
967;BME280;56108;48.730;9.304;2024-01-27T01:14:03;99275.19;;;1.45;100.00
967;BME280;56108;48.730;9.304;2024-01-27T01:16:12;99271.72;;;1.43;100.00
967;BME280;56108;48.730;9.304;2024-01-27T01:18:20;99268.31;;;1.27;100.00
967;BME280;56108;48.730;9.304;2024-01-27T01:20:28;99271.88;;;1.13;100.00
967;BME280;56108;48.730;9.304;2024-01-27T01:22:38;99280.47;;;1.39;100.00
967;BME280;56108;48.730;9.304;2024-01-27T01:24:49;99276.13;;;1.35;100.00
967;BME280;56108;48.730;9.304;2024-01-27T01:26:58;99276.22;;;1.23;100.00
967;BME280;56108;48.730;9.304;2024-01-27T01:29:06;99271.03;;;1.11;100.00
967;BME280;56108;48.730;9.304;2024-01-27T01:31:14;99281.44;;;1.20;100.00
967;BME280;56108;48.730;9.304;2024-01-27T01:33:23;99275.41;;;1.07;100.00
967;BME280;56108;48.730;9.304;2024-01-27T01:35:29;99268.44;;;1.03;100.00
967;BME280;56108;48.730;9.304;2024-01-27T01:37:38;99273.72;;;1.00;100.00
967;BME280;56108;48.730;9.304;2024-01-27T01:39:43;99265.75;;;1.14;100.00
967;BME280;56108;48.730;9.304;2024-01-27T01:41:54;99263.94;;;1.28;100.00
967;BME280;56108;48.730;9.304;2024-01-27T01:44:03;99263.09;;;1.23;100.00
967;BME280;56108;48.730;9.304;2024-01-27T01:46:11;99272.69;;;1.24;100.00
967;BME280;56108;48.730;9.304;2024-01-27T01:48:20;99263.00;;;1.35;100.00
967;BME280;56108;48.730;9.304;2024-01-27T01:50:29;99270.91;;;1.32;100.00
967;BME280;56108;48.730;9.304;2024-01-27T01:52:38;99264.88;;;1.21;100.00
967;BME280;56108;48.730;9.304;2024-01-27T01:54:48;99275.34;;;1.22;100.00
967;BME280;56108;48.730;9.304;2024-01-27T01:57:00;99268.44;;;1.04;100.00
967;BME280;56108;48.730;9.304;2024-01-27T01:59:08;99274.63;;;0.87;100.00
967;BME280;56108;48.730;9.304;2024-01-27T02:01:17;99271.22;;;0.63;100.00
967;BME280;56108;48.730;9.304;2024-01-27T02:03:24;99275.63;;;0.47;100.00
967;BME280;56108;48.730;9.304;2024-01-27T02:05:33;99272.13;;;0.35;100.00
967;BME280;56108;48.730;9.304;2024-01-27T02:07:41;99267.78;;;0.28;100.00
967;BME280;56108;48.730;9.304;2024-01-27T02:09:47;99270.41;;;0.20;100.00
967;BME280;56108;48.730;9.304;2024-01-27T02:11:55;99268.66;;;0.10;100.00
967;BME280;56108;48.730;9.304;2024-01-27T02:14:07;99266.06;;;0.07;100.00
967;BME280;56108;48.730;9.304;2024-01-27T02:16:15;99273.06;;;0.02;100.00
967;BME280;56108;48.730;9.304;2024-01-27T02:18:25;99272.19;;;0.03;100.00
967;BME280;56108;48.730;9.304;2024-01-27T02:20:33;99263.44;;;0.05;100.00
967;BME280;56108;48.730;9.304;2024-01-27T02:22:42;99269.53;;;0.10;100.00
967;BME280;56108;48.730;9.304;2024-01-27T02:24:53;99270.44;;;0.08;100.00
967;BME280;56108;48.730;9.304;2024-01-27T02:27:01;99272.16;;;-0.01;100.00
967;BME280;56108;48.730;9.304;2024-01-27T02:29:11;99275.66;;;-0.03;100.00
967;BME280;56108;48.730;9.304;2024-01-27T02:31:19;99279.16;;;-0.07;100.00
967;BME280;56108;48.730;9.304;2024-01-27T02:33:28;99269.56;;;-0.07;100.00
967;BME280;56108;48.730;9.304;2024-01-27T02:35:37;99264.34;;;0.01;100.00
967;BME280;56108;48.730;9.304;2024-01-27T02:37:45;99271.31;;;-0.10;100.00
967;BME280;56108;48.730;9.304;2024-01-27T02:39:56;99267.81;;;-0.08;100.00
967;BME280;56108;48.730;9.304;2024-01-27T02:42:05;99272.16;;;-0.11;100.00
967;BME280;56108;48.730;9.304;2024-01-27T02:44:13;99276.53;;;-0.18;100.00
967;BME280;56108;48.730;9.304;2024-01-27T02:46:22;99282.66;;;-0.25;100.00
967;BME280;56108;48.730;9.304;2024-01-27T02:48:31;99274.78;;;-0.27;100.00
967;BME280;56108;48.730;9.304;2024-01-27T02:50:39;99281.75;;;-0.33;100.00
967;BME280;56108;48.730;9.304;2024-01-27T02:52:48;99279.16;;;-0.15;100.00
967;BME280;56108;48.730;9.304;2024-01-27T02:54:59;99287.88;;;0.03;100.00
967;BME280;56108;48.730;9.304;2024-01-27T02:57:09;99286.13;;;0.08;100.00
967;BME280;56108;48.730;9.304;2024-01-27T02:59:18;99294.84;;;0.04;100.00
967;BME280;56108;48.730;9.304;2024-01-27T03:01:27;99286.13;;;0.20;100.00
967;BME280;56108;48.730;9.304;2024-01-27T03:03:35;99283.50;;;0.24;100.00
967;BME280;56108;48.730;9.304;2024-01-27T03:05:44;99289.59;;;0.31;100.00
967;BME280;56108;48.730;9.304;2024-01-27T03:07:50;99291.38;;;0.28;100.00
967;BME280;56108;48.730;9.304;2024-01-27T03:10:01;99298.31;;;0.41;100.00
967;BME280;56108;48.730;9.304;2024-01-27T03:12:09;99300.94;;;0.30;100.00
967;BME280;56108;48.730;9.304;2024-01-27T03:14:18;99307.94;;;0.27;100.00
967;BME280;56108;48.730;9.304;2024-01-27T03:16:24;99307.94;;;0.23;100.00
967;BME280;56108;48.730;9.304;2024-01-27T03:18:33;99311.41;;;0.25;100.00
967;BME280;56108;48.730;9.304;2024-01-27T03:20:42;99302.69;;;0.30;100.00
967;BME280;56108;48.730;9.304;2024-01-27T03:22:50;99303.59;;;0.27;100.00
967;BME280;56108;48.730;9.304;2024-01-27T03:25:02;99309.69;;;0.43;100.00
967;BME280;56108;48.730;9.304;2024-01-27T03:27:10;99307.91;;;0.46;100.00
967;BME280;56108;48.730;9.304;2024-01-27T03:29:19;99314.03;;;0.39;100.00
967;BME280;56108;48.730;9.304;2024-01-27T03:31:30;99314.91;;;0.29;100.00
967;BME280;56108;48.730;9.304;2024-01-27T03:33:40;99312.31;;;0.37;100.00
967;BME280;56108;48.730;9.304;2024-01-27T03:35:48;99315.78;;;0.30;100.00
967;BME280;56108;48.730;9.304;2024-01-27T03:37:54;99312.28;;;0.41;100.00
967;BME280;56108;48.730;9.304;2024-01-27T03:40:10;99325.41;;;0.11;100.00
967;BME280;56108;48.730;9.304;2024-01-27T03:42:21;99323.66;;;0.02;100.00
967;BME280;56108;48.730;9.304;2024-01-27T03:44:31;99329.75;;;-0.02;100.00
967;BME280;56108;48.730;9.304;2024-01-27T03:46:39;99330.63;;;-0.05;100.00
967;BME280;56108;48.730;9.304;2024-01-27T03:48:48;99332.34;;;0.10;100.00
967;BME280;56108;48.730;9.304;2024-01-27T03:50:57;99335.00;;;0.03;100.00
967;BME280;56108;48.730;9.304;2024-01-27T03:53:05;99343.72;;;0.06;100.00
967;BME280;56108;48.730;9.304;2024-01-27T03:55:17;99345.44;;;-0.19;100.00
967;BME280;56108;48.730;9.304;2024-01-27T03:57:25;99332.34;;;-0.31;100.00
967;BME280;56108;48.730;9.304;2024-01-27T03:59:33;99333.19;;;-0.35;100.00
967;BME280;56108;48.730;9.304;2024-01-27T04:01:41;99323.59;;;-0.38;100.00
967;BME280;56108;48.730;9.304;2024-01-27T04:03:50;99322.72;;;-0.40;100.00
967;BME280;56108;48.730;9.304;2024-01-27T04:05:58;99321.81;;;-0.48;100.00
967;BME280;56108;48.730;9.304;2024-01-27T04:08:08;99322.72;;;-0.34;100.00
967;BME280;56108;48.730;9.304;2024-01-27T04:10:19;99315.75;;;-0.27;100.00
967;BME280;56108;48.730;9.304;2024-01-27T04:12:27;99326.22;;;-0.29;100.00
967;BME280;56108;48.730;9.304;2024-01-27T04:14:34;99319.25;;;-0.36;100.00
967;BME280;56108;48.730;9.304;2024-01-27T04:16:42;99319.22;;;-0.49;100.00
967;BME280;56108;48.730;9.304;2024-01-27T04:18:50;99316.63;;;-0.36;100.00
967;BME280;56108;48.730;9.304;2024-01-27T04:20:59;99316.63;;;-0.28;100.00
967;BME280;56108;48.730;9.304;2024-01-27T04:23:07;99317.53;;;-0.26;100.00
967;BME280;56108;48.730;9.304;2024-01-27T04:25:18;99321.84;;;-0.40;100.00
967;BME280;56108;48.730;9.304;2024-01-27T04:27:29;99326.19;;;-0.48;100.00
967;BME280;56108;48.730;9.304;2024-01-27T04:29:38;99321.84;;;-0.51;100.00
967;BME280;56108;48.730;9.304;2024-01-27T04:31:47;99320.09;;;-0.52;100.00
967;BME280;56108;48.730;9.304;2024-01-27T04:33:55;99315.69;;;-0.58;100.00
967;BME280;56108;48.730;9.304;2024-01-27T04:36:04;99317.47;;;-0.55;100.00
967;BME280;56108;48.730;9.304;2024-01-27T04:38:14;99313.97;;;-0.53;100.00
967;BME280;56108;48.730;9.304;2024-01-27T04:40:25;99313.13;;;-0.47;100.00
967;BME280;56108;48.730;9.304;2024-01-27T04:42:33;99313.97;;;-0.54;100.00
967;BME280;56108;48.730;9.304;2024-01-27T04:44:43;99311.34;;;-0.60;100.00
967;BME280;56108;48.730;9.304;2024-01-27T04:46:51;99318.28;;;-0.64;100.00
967;BME280;56108;48.730;9.304;2024-01-27T04:49:00;99309.50;;;-0.84;100.00
967;BME280;56108;48.730;9.304;2024-01-27T04:51:08;99315.53;;;-1.08;100.00
967;BME280;56108;48.730;9.304;2024-01-27T04:53:17;99311.19;;;-1.09;100.00
967;BME280;56108;48.730;9.304;2024-01-27T04:55:28;99311.16;;;-1.12;100.00
967;BME280;56108;48.730;9.304;2024-01-27T04:57:39;99300.69;;;-1.12;100.00
967;BME280;56108;48.730;9.304;2024-01-27T04:59:49;99299.00;;;-1.09;100.00
967;BME280;56108;48.730;9.304;2024-01-27T05:01:57;99304.19;;;-1.15;100.00
967;BME280;56108;48.730;9.304;2024-01-27T05:04:06;99305.91;;;-1.20;100.00
967;BME280;56108;48.730;9.304;2024-01-27T05:06:14;99308.47;;;-1.21;100.00
967;BME280;56108;48.730;9.304;2024-01-27T05:08:23;99300.63;;;-1.27;100.00
967;BME280;56108;48.730;9.304;2024-01-27T05:10:34;99301.50;;;-1.27;100.00
967;BME280;56108;48.730;9.304;2024-01-27T05:12:42;99293.69;;;-1.21;100.00
967;BME280;56108;48.730;9.304;2024-01-27T05:14:50;99286.75;;;-1.16;100.00
967;BME280;56108;48.730;9.304;2024-01-27T05:16:58;99286.75;;;-1.17;100.00
967;BME280;56108;48.730;9.304;2024-01-27T05:19:07;99285.84;;;-1.24;100.00
967;BME280;56108;48.730;9.304;2024-01-27T05:21:15;99295.41;;;-1.30;100.00
967;BME280;56108;48.730;9.304;2024-01-27T05:23:24;99291.03;;;-1.33;100.00
967;BME280;56108;48.730;9.304;2024-01-27T05:25:35;99291.00;;;-1.36;100.00
967;BME280;56108;48.730;9.304;2024-01-27T05:27:43;99291.03;;;-1.33;100.00
967;BME280;56108;48.730;9.304;2024-01-27T05:29:49;99282.44;;;-1.05;100.00
967;BME280;56108;48.730;9.304;2024-01-27T05:31:57;99277.22;;;-1.00;100.00
967;BME280;56108;48.730;9.304;2024-01-27T05:34:03;99280.72;;;-0.99;100.00
967;BME280;56108;48.730;9.304;2024-01-27T05:36:12;99285.94;;;-1.09;100.00
967;BME280;56108;48.730;9.304;2024-01-27T05:38:21;99274.56;;;-1.12;100.00
967;BME280;56108;48.730;9.304;2024-01-27T05:40:33;99278.97;;;-1.00;100.00
967;BME280;56108;48.730;9.304;2024-01-27T05:42:45;99284.25;;;-0.88;100.00
967;BME280;56108;48.730;9.304;2024-01-27T05:44:54;99293.84;;;-0.89;100.00
967;BME280;56108;48.730;9.304;2024-01-27T05:47:03;99286.03;;;-0.69;100.00
967;BME280;56108;48.730;9.304;2024-01-27T05:49:15;99297.38;;;-0.73;100.00
967;BME280;56108;48.730;9.304;2024-01-27T05:51:24;99302.53;;;-0.84;100.00
967;BME280;56108;48.730;9.304;2024-01-27T05:53:35;99300.78;;;-0.89;100.00
967;BME280;56108;48.730;9.304;2024-01-27T05:55:46;99298.28;;;-0.62;100.00
967;BME280;56108;48.730;9.304;2024-01-27T05:57:55;99305.22;;;-0.58;100.00
967;BME280;56108;48.730;9.304;2024-01-27T06:00:04;99307.00;;;-0.54;100.00
967;BME280;56108;48.730;9.304;2024-01-27T06:02:14;99313.94;;;-0.72;100.00
967;BME280;56108;48.730;9.304;2024-01-27T06:04:23;99316.47;;;-0.92;100.00
967;BME280;56108;48.730;9.304;2024-01-27T06:06:32;99313.81;;;-1.01;100.00
967;BME280;56108;48.730;9.304;2024-01-27T06:08:40;99311.31;;;-0.71;100.00
967;BME280;56108;48.730;9.304;2024-01-27T06:10:52;99313.94;;;-0.68;100.00
967;BME280;56108;48.730;9.304;2024-01-27T06:13:01;99326.16;;;-0.58;100.00
967;BME280;56108;48.730;9.304;2024-01-27T06:15:10;99335.78;;;-0.47;100.00
967;BME280;56108;48.730;9.304;2024-01-27T06:17:19;99332.28;;;-0.49;100.00
967;BME280;56108;48.730;9.304;2024-01-27T06:19:27;99331.44;;;-0.51;100.00
967;BME280;56108;48.730;9.304;2024-01-27T06:21:36;99342.78;;;-0.40;100.00
967;BME280;56108;48.730;9.304;2024-01-27T06:23:45;99340.16;;;-0.46;100.00
967;BME280;56108;48.730;9.304;2024-01-27T06:25:56;99339.25;;;-0.50;100.00
967;BME280;56108;48.730;9.304;2024-01-27T06:28:04;99339.22;;;-0.58;100.00
967;BME280;56108;48.730;9.304;2024-01-27T06:30:14;99342.72;;;-0.66;100.00
967;BME280;56108;48.730;9.304;2024-01-27T06:32:23;99338.34;;;-0.72;100.00
967;BME280;56108;48.730;9.304;2024-01-27T06:34:32;99341.78;;;-0.77;100.00
967;BME280;56108;48.730;9.304;2024-01-27T06:36:40;99344.34;;;-0.91;100.00
967;BME280;56108;48.730;9.304;2024-01-27T06:38:49;99342.53;;;-1.05;100.00
967;BME280;56108;48.730;9.304;2024-01-27T06:40:57;99340.69;;;-1.21;100.00
967;BME280;56108;48.730;9.304;2024-01-27T06:43:05;99351.13;;;-1.30;100.00
967;BME280;56108;48.730;9.304;2024-01-27T06:45:13;99353.63;;;-1.42;100.00
967;BME280;56108;48.730;9.304;2024-01-27T06:47:23;99350.13;;;-1.49;100.00
967;BME280;56108;48.730;9.304;2024-01-27T06:49:49;99346.69;;;-1.37;100.00
967;BME280;56108;48.730;9.304;2024-01-27T06:51:57;99338.19;;;-0.99;100.00
967;BME280;56108;48.730;9.304;2024-01-27T06:54:05;99333.88;;;-0.93;100.00
967;BME280;56108;48.730;9.304;2024-01-27T06:56:17;99342.69;;;-0.63;100.00
967;BME280;56108;48.730;9.304;2024-01-27T06:58:25;99343.56;;;-0.63;100.00
967;BME280;56108;48.730;9.304;2024-01-27T07:00:34;99342.72;;;-0.59;100.00
967;BME280;56108;48.730;9.304;2024-01-27T07:02:43;99354.94;;;-0.61;100.00
967;BME280;56108;48.730;9.304;2024-01-27T07:04:51;99354.03;;;-0.66;100.00
967;BME280;56108;48.730;9.304;2024-01-27T07:07:00;99359.25;;;-0.63;100.00
967;BME280;56108;48.730;9.304;2024-01-27T07:09:06;99357.53;;;-0.67;100.00
967;BME280;56108;48.730;9.304;2024-01-27T07:11:18;99353.97;;;-0.83;100.00
967;BME280;56108;48.730;9.304;2024-01-27T07:13:26;99350.44;;;-0.92;100.00
967;BME280;56108;48.730;9.304;2024-01-27T07:15:35;99354.75;;;-1.02;100.00
967;BME280;56108;48.730;9.304;2024-01-27T07:17:44;99353.91;;;-0.96;100.00
967;BME280;56108;48.730;9.304;2024-01-27T07:19:49;99347.81;;;-0.95;100.00
967;BME280;56108;48.730;9.304;2024-01-27T07:22:00;99356.47;;;-0.99;100.00
967;BME280;56108;48.730;9.304;2024-01-27T07:24:09;99360.84;;;-1.03;100.00
967;BME280;56108;48.730;9.304;2024-01-27T07:26:20;99359.06;;;-1.09;100.00
967;BME280;56108;48.730;9.304;2024-01-27T07:28:29;99352.16;;;-0.97;100.00
967;BME280;56108;48.730;9.304;2024-01-27T07:30:34;99356.56;;;-0.89;100.00
967;BME280;56108;48.730;9.304;2024-01-27T07:32:43;99358.28;;;-0.91;100.00
967;BME280;56108;48.730;9.304;2024-01-27T07:34:52;99353.97;;;-0.83;100.00
967;BME280;56108;48.730;9.304;2024-01-27T07:37:01;99360.88;;;-0.91;100.00
967;BME280;56108;48.730;9.304;2024-01-27T07:39:09;99363.44;;;-1.00;100.00
967;BME280;56108;48.730;9.304;2024-01-27T07:41:21;99359.94;;;-1.10;100.00
967;BME280;56108;48.730;9.304;2024-01-27T07:43:33;99347.75;;;-1.06;100.00
967;BME280;56108;48.730;9.304;2024-01-27T07:45:41;99339.06;;;-1.03;100.00
967;BME280;56108;48.730;9.304;2024-01-27T07:47:51;99334.75;;;-0.97;100.00
967;BME280;56108;48.730;9.304;2024-01-27T07:50:03;99334.75;;;-0.89;100.00
967;BME280;56108;48.730;9.304;2024-01-27T07:54:21;99339.13;;;-0.93;100.00
967;BME280;56108;48.730;9.304;2024-01-27T07:56:32;99346.94;;;-0.91;100.00
967;BME280;56108;48.730;9.304;2024-01-27T07:58:43;99345.16;;;-1.00;100.00
967;BME280;56108;48.730;9.304;2024-01-27T08:00:49;99353.81;;;-1.12;100.00
967;BME280;56108;48.730;9.304;2024-01-27T08:02:58;99341.69;;;-1.00;100.00
967;BME280;56108;48.730;9.304;2024-01-27T08:05:07;99346.94;;;-0.99;100.00
967;BME280;56108;48.730;9.304;2024-01-27T08:07:15;99336.44;;;-1.08;100.00
967;BME280;56108;48.730;9.304;2024-01-27T08:09:23;99331.13;;;-1.25;100.00
967;BME280;56108;48.730;9.304;2024-01-27T08:11:35;99332.81;;;-1.33;100.00
967;BME280;56108;48.730;9.304;2024-01-27T08:13:43;99327.59;;;-1.27;100.00
967;BME280;56108;48.730;9.304;2024-01-27T08:15:51;99326.81;;;-1.20;100.00
967;BME280;56108;48.730;9.304;2024-01-27T08:18:00;99335.50;;;-1.19;100.00
967;BME280;56108;48.730;9.304;2024-01-27T08:20:09;99329.44;;;-1.14;100.00
967;BME280;56108;48.730;9.304;2024-01-27T08:22:17;99331.19;;;-1.05;100.00
967;BME280;56108;48.730;9.304;2024-01-27T08:24:26;99327.84;;;-0.83;100.00
967;BME280;56108;48.730;9.304;2024-01-27T08:26:37;99323.44;;;-0.84;100.00
967;BME280;56108;48.730;9.304;2024-01-27T08:28:47;99326.13;;;-0.76;100.00
967;BME280;56108;48.730;9.304;2024-01-27T08:30:55;99332.16;;;-0.89;100.00
967;BME280;56108;48.730;9.304;2024-01-27T08:33:05;99317.38;;;-0.89;100.00
967;BME280;56108;48.730;9.304;2024-01-27T08:35:13;99326.09;;;-0.81;100.00
967;BME280;56108;48.730;9.304;2024-01-27T08:37:22;99326.97;;;-0.77;100.00
967;BME280;56108;48.730;9.304;2024-01-27T08:39:28;99335.75;;;-0.67;100.00
967;BME280;56108;48.730;9.304;2024-01-27T08:41:45;99323.53;;;-0.67;100.00
967;BME280;56108;48.730;9.304;2024-01-27T08:44:14;99324.41;;;-0.59;100.00
967;BME280;56108;48.730;9.304;2024-01-27T08:46:30;99314.84;;;-0.50;100.00
967;BME280;56108;48.730;9.304;2024-01-27T08:49:01;99314.00;;;-0.33;100.00
967;BME280;56108;48.730;9.304;2024-01-27T08:51:15;99313.13;;;-0.33;100.00
967;BME280;56108;48.730;9.304;2024-01-27T08:53:25;99306.16;;;-0.27;100.00
967;BME280;56108;48.730;9.304;2024-01-27T08:55:37;99307.91;;;-0.27;100.00
967;BME280;56108;48.730;9.304;2024-01-27T08:57:52;99299.22;;;-0.20;100.00
967;BME280;56108;48.730;9.304;2024-01-27T09:00:05;99300.06;;;-0.12;100.00
967;BME280;56108;48.730;9.304;2024-01-27T09:02:20;99298.34;;;0.03;100.00
967;BME280;56108;48.730;9.304;2024-01-27T09:04:33;99304.44;;;0.05;100.00
967;BME280;56108;48.730;9.304;2024-01-27T09:06:49;99314.06;;;0.07;100.00
967;BME280;56108;48.730;9.304;2024-01-27T09:09:02;99319.28;;;-0.02;100.00
967;BME280;56108;48.730;9.304;2024-01-27T09:11:17;99320.16;;;-0.03;100.00
967;BME280;56108;48.730;9.304;2024-01-27T09:14:15;99341.09;;;-0.20;100.00
967;BME280;56108;48.730;9.304;2024-01-27T09:16:43;99341.09;;;0.03;100.00
967;BME280;56108;48.730;9.304;2024-01-27T09:19:00;99338.44;;;0.69;100.00
967;BME280;56108;48.730;9.304;2024-01-27T09:21:13;99348.53;;;1.73;100.00
967;BME280;56108;48.730;9.304;2024-01-27T09:23:40;99393.09;;;2.91;100.00
967;BME280;56108;48.730;9.304;2024-01-27T09:25:50;99451.66;;;4.52;100.00
967;BME280;56108;48.730;9.304;2024-01-27T09:28:07;99491.28;;;6.77;100.00
967;BME280;56108;48.730;9.304;2024-01-27T09:30:44;99491.31;;;8.69;100.00
967;BME280;56108;48.730;9.304;2024-01-27T09:32:55;99529.00;;;9.86;83.14
967;BME280;56108;48.730;9.304;2024-01-27T09:35:06;99539.91;;;10.52;79.09
967;BME280;56108;48.730;9.304;2024-01-27T09:37:26;99576.97;;;11.89;69.86
967;BME280;56108;48.730;9.304;2024-01-27T09:39:37;99603.75;;;12.87;65.25
967;BME280;56108;48.730;9.304;2024-01-27T09:41:48;99630.00;;;14.23;59.69
967;BME280;56108;48.730;9.304;2024-01-27T09:43:59;99654.91;;;14.08;55.38
967;BME280;56108;48.730;9.304;2024-01-27T09:46:08;99670.03;;;14.26;53.45
967;BME280;56108;48.730;9.304;2024-01-27T09:48:17;99694.25;;;15.26;49.82
967;BME280;56108;48.730;9.304;2024-01-27T09:50:26;99703.88;;;15.30;48.60
967;BME280;56108;48.730;9.304;2024-01-27T09:52:35;99711.72;;;15.33;47.79
967;BME280;56108;48.730;9.304;2024-01-27T09:54:43;99705.53;;;14.99;47.52
967;BME280;56108;48.730;9.304;2024-01-27T09:56:52;99714.50;;;15.47;46.44
967;BME280;56108;48.730;9.304;2024-01-27T09:59:02;99710.41;;;15.24;46.27
967;BME280;56108;48.730;9.304;2024-01-27T10:01:16;99709.03;;;14.84;47.10
967;BME280;56108;48.730;9.304;2024-01-27T10:03:25;99710.16;;;15.29;46.46
967;BME280;56108;48.730;9.304;2024-01-27T10:05:35;99720.31;;;14.56;46.49
967;BME280;56108;48.730;9.304;2024-01-27T10:07:43;99710.19;;;13.35;48.40
967;BME280;56108;48.730;9.304;2024-01-27T10:09:52;99691.38;;;12.60;50.61
967;BME280;56108;48.730;9.304;2024-01-27T10:12:01;99678.47;;;12.28;52.37
967;BME280;56108;48.730;9.304;2024-01-27T10:14:10;99656.94;;;10.30;57.22
967;BME280;56108;48.730;9.304;2024-01-27T10:16:22;99629.50;;;8.31;64.55
967;BME280;56108;48.730;9.304;2024-01-27T10:18:32;99592.56;;;7.91;72.68
967;BME280;56108;48.730;9.304;2024-01-27T10:20:42;99574.34;;;6.70;82.89
967;BME280;56108;48.730;9.304;2024-01-27T10:22:54;99557.41;;;6.39;89.81
967;BME280;56108;48.730;9.304;2024-01-27T10:25:05;99561.09;;;7.09;87.02
967;BME280;56108;48.730;9.304;2024-01-27T10:27:14;99578.38;;;7.94;81.71
967;BME280;56108;48.730;9.304;2024-01-27T10:29:24;99581.00;;;7.61;81.88
967;BME280;56108;48.730;9.304;2024-01-27T10:31:37;99574.66;;;7.32;82.23
967;BME280;56108;48.730;9.304;2024-01-27T10:33:51;99570.31;;;7.64;82.04
967;BME280;56108;48.730;9.304;2024-01-27T10:36:01;99574.72;;;8.29;77.88
967;BME280;56108;48.730;9.304;2024-01-27T10:38:10;99578.94;;;9.51;75.44
967;BME280;56108;48.730;9.304;2024-01-27T10:40:19;99611.00;;;10.23;65.32
967;BME280;56108;48.730;9.304;2024-01-27T10:42:25;99603.47;;;9.59;67.90
967;BME280;56108;48.730;9.304;2024-01-27T10:44:36;99605.34;;;10.34;66.22
967;BME280;56108;48.730;9.304;2024-01-27T10:46:50;99636.34;;;11.94;59.67
967;BME280;56108;48.730;9.304;2024-01-27T10:49:00;99657.69;;;12.15;56.16
967;BME280;56108;48.730;9.304;2024-01-27T10:51:10;99653.63;;;12.26;54.60
967;BME280;56108;48.730;9.304;2024-01-27T10:53:22;99658.38;;;13.00;52.96
967;BME280;56108;48.730;9.304;2024-01-27T10:55:40;99633.03;;;10.28;57.46
967;BME280;56108;48.730;9.304;2024-01-27T10:57:50;99619.50;;;10.83;57.25
967;BME280;56108;48.730;9.304;2024-01-27T11:00:03;99608.34;;;10.25;57.93
967;BME280;56108;48.730;9.304;2024-01-27T11:02:17;99595.03;;;9.47;60.53
967;BME280;56108;48.730;9.304;2024-01-27T11:04:31;99519.34;;;6.04;85.54
967;BME280;56108;48.730;9.304;2024-01-27T11:07:02;99482.22;;;5.17;100.00
967;BME280;56108;48.730;9.304;2024-01-27T11:09:14;99475.59;;;4.36;100.00
967;BME280;56108;48.730;9.304;2024-01-27T11:11:41;99469.03;;;4.03;100.00
967;BME280;56108;48.730;9.304;2024-01-27T11:13:51;99465.31;;;4.18;100.00
967;BME280;56108;48.730;9.304;2024-01-27T11:16:03;99466.66;;;3.83;100.00
967;BME280;56108;48.730;9.304;2024-01-27T11:18:16;99453.63;;;3.73;100.00
967;BME280;56108;48.730;9.304;2024-01-27T11:20:30;99455.38;;;3.72;100.00
967;BME280;56108;48.730;9.304;2024-01-27T11:22:41;99454.38;;;3.82;100.00
967;BME280;56108;48.730;9.304;2024-01-27T11:24:52;99452.69;;;3.77;100.00
967;BME280;56108;48.730;9.304;2024-01-27T11:27:02;99443.78;;;3.87;100.00
967;BME280;56108;48.730;9.304;2024-01-27T11:29:14;99449.09;;;3.81;100.00
967;BME280;56108;48.730;9.304;2024-01-27T11:31:30;99452.63;;;3.83;100.00
967;BME280;56108;48.730;9.304;2024-01-27T11:36:52;99439.94;;;4.11;100.00
967;BME280;56108;48.730;9.304;2024-01-27T11:39:02;99438.31;;;4.01;100.00
967;BME280;56108;48.730;9.304;2024-01-27T11:41:11;99438.41;;;3.95;100.00
967;BME280;56108;48.730;9.304;2024-01-27T11:43:19;99443.53;;;4.05;100.00
967;BME280;56108;48.730;9.304;2024-01-27T11:45:30;99436.72;;;3.89;100.00
967;BME280;56108;48.730;9.304;2024-01-27T11:47:56;99436.69;;;3.92;100.00
967;BME280;56108;48.730;9.304;2024-01-27T11:50:08;99430.16;;;4.17;100.00